Time;durP1;ratioP1;P1;durP2;ratioP2;P2;SDS_P1;SDS_P2;PMS_P1;PMS_P2;Temp;Humidity;BMP_temperature;BMP_pressure;BME280_temperature;BME280_humidity;BME280_pressure;Samples;Min_cycle;Max_cycle;Signal;HPM_P1;HPM_P2
2022/05/22 00:01:23;;;;;;;5.35;1.10;;;;;;;12.93;69.16;102063.50;5015743;28;96766;-34
2022/05/22 00:03:48;;;;;;;1.42;0.95;;;;;;;12.82;69.00;102044.13;5014345;28;125681;-34
2022/05/22 00:06:14;;;;;;;1.67;1.02;;;;;;;12.83;69.44;102043.19;5015197;28;97812;-34
2022/05/22 00:08:39;;;;;;;3.95;1.70;;;;;;;12.83;69.27;102041.34;5015619;28;96636;-34
2022/05/22 00:11:04;;;;;;;2.08;0.93;;;;;;;12.85;69.47;102053.03;5015574;28;96820;-34
2022/05/22 00:13:30;;;;;;;4.53;1.40;;;;;;;12.81;69.61;102040.53;5015364;28;97539;-34
2022/05/22 00:18:38;;;;;;;4.85;1.20;;;;;;;12.62;69.83;102007.13;5014471;28;96693;-34
2022/05/22 00:21:04;;;;;;;2.22;1.05;;;;;;;12.71;69.78;102026.53;5014284;28;118768;-34
2022/05/22 00:23:31;;;;;;;4.85;1.13;;;;;;;12.69;70.47;102014.88;5015327;28;97510;-34
2022/05/22 00:25:57;;;;;;;3.00;1.20;;;;;;;12.66;70.07;102015.03;4997021;28;101031;-34
2022/05/22 00:28:22;;;;;;;1.63;1.10;;;;;;;12.68;70.14;102032.16;5014830;28;96573;-34
2022/05/22 00:30:48;;;;;;;5.88;1.38;;;;;;;12.60;70.06;102033.50;5015084;28;96845;-34
2022/05/22 00:33:13;;;;;;;4.10;1.05;;;;;;;12.65;70.58;102042.28;5013732;28;128151;-34
2022/05/22 00:35:40;;;;;;;4.15;1.23;;;;;;;12.63;69.90;102027.88;5014319;28;126955;-34
2022/05/22 00:38:05;;;;;;;5.30;2.05;;;;;;;12.61;70.17;102035.25;4996811;28;96706;-34
2022/05/22 00:40:30;;;;;;;3.05;1.05;;;;;;;12.59;71.05;102038.06;5014244;28;114358;-34
2022/05/22 00:42:56;;;;;;;2.35;0.88;;;;;;;12.55;70.17;102041.88;5014220;28;100188;-34
2022/05/22 00:45:24;;;;;;;5.85;1.40;;;;;;;12.51;70.64;102045.69;5014456;28;117172;-34
2022/05/22 00:47:51;;;;;;;2.15;1.15;;;;;;;12.50;70.22;102043.97;5015246;28;96506;-34
2022/05/22 00:50:17;;;;;;;3.05;1.20;;;;;;;12.43;70.87;102027.06;5013428;28;96866;-34
2022/05/22 00:52:47;;;;;;;8.20;1.55;;;;;;;12.47;70.90;102042.28;5014740;28;98012;-33
2022/05/22 00:55:26;;;;;;;2.72;1.02;;;;;;;12.46;70.88;102040.50;4996422;28;102884;-33
2022/05/22 00:57:55;;;;;;;3.72;1.10;;;;;;;12.46;70.32;102032.34;4996620;28;96630;-34
2022/05/22 01:00:27;;;;;;;6.15;1.30;;;;;;;12.36;70.78;102016.59;4997172;28;96993;-34
2022/05/22 01:05:46;;;;;;;4.63;1.58;;;;;;;12.33;71.17;102018.50;5014632;28;97017;-34
2022/05/22 01:08:11;;;;;;;3.08;1.38;;;;;;;12.37;70.58;102026.50;5012873;28;96714;-33
2022/05/22 01:10:44;;;;;;;3.35;1.58;;;;;;;12.30;71.29;102021.38;5014288;28;96947;-34
2022/05/22 01:13:10;;;;;;;5.40;1.17;;;;;;;12.29;71.28;102026.88;4996130;28;100802;-34
2022/05/22 01:15:36;;;;;;;4.80;1.58;;;;;;;12.28;71.16;102025.13;5014196;28;97975;-34
2022/05/22 01:18:01;;;;;;;2.25;1.35;;;;;;;12.24;71.07;102027.09;5014506;28;96527;-34
2022/05/22 01:20:26;;;;;;;4.70;1.58;;;;;;;12.24;71.28;102037.97;5014322;28;96871;-34
2022/05/22 01:22:52;;;;;;;2.20;1.25;;;;;;;12.20;70.93;102036.34;5013616;28;113120;-33
2022/05/22 01:25:17;;;;;;;4.45;1.52;;;;;;;12.20;71.51;102038.19;5012346;28;129894;-34
2022/05/22 01:27:42;;;;;;;4.72;1.52;;;;;;;12.22;71.14;102039.88;5014585;28;96488;-34
2022/05/22 01:30:16;;;;;;;2.78;1.35;;;;;;;12.21;71.31;102035.41;5014523;28;96844;-34
2022/05/22 01:32:44;;;;;;;2.85;1.40;;;;;;;12.16;71.09;102023.91;5013784;28;98534;-34
2022/05/22 01:35:13;;;;;;;3.58;1.45;;;;;;;12.10;71.77;102005.19;5014152;28;97797;-34
2022/05/22 01:37:38;;;;;;;4.78;1.95;;;;;;;12.13;71.48;102006.88;4996309;28;96628;-34
2022/05/22 01:40:04;;;;;;;4.80;1.27;;;;;;;12.08;70.81;102009.81;5014569;28;96773;-34
2022/05/22 01:42:30;;;;;;;2.53;1.27;;;;;;;12.03;71.68;102010.03;4995615;28;102479;-34
2022/05/22 01:44:56;;;;;;;5.53;2.00;;;;;;;12.04;71.71;102002.78;5013878;28;102642;-34
2022/05/22 01:47:21;;;;;;;3.97;2.22;;;;;;;12.04;71.56;101997.34;5014337;28;96941;-33
2022/05/22 01:49:46;;;;;;;3.05;1.70;;;;;;;12.03;71.35;101996.44;5014497;28;96786;-34
2022/05/22 01:52:11;;;;;;;5.85;1.85;;;;;;;11.99;72.06;101989.44;5014053;28;97777;-34
2022/05/22 01:54:37;;;;;;;4.15;2.03;;;;;;;12.01;71.97;101983.91;5013827;28;101676;-34
2022/05/22 01:57:03;;;;;;;5.45;2.38;;;;;;;11.93;71.84;101978.88;5013495;28;96759;-34
2022/05/22 01:59:28;;;;;;;4.40;1.98;;;;;;;11.95;72.04;101973.38;4996054;28;96794;-34
2022/05/22 02:01:53;;;;;;;4.43;2.30;;;;;;;11.90;72.10;101969.03;5013739;28;98025;-34
2022/05/22 02:04:19;;;;;;;6.70;1.70;;;;;;;11.92;71.90;101970.78;5013793;28;101400;-34
2022/05/22 02:09:35;;;;;;;4.35;1.58;;;;;;;11.86;71.59;101972.81;4981837;28;96805;-34
2022/05/22 02:12:01;;;;;;;5.65;2.08;;;;;;;11.88;72.05;101970.06;5013384;28;99428;-33
2022/05/22 02:14:26;;;;;;;4.65;2.08;;;;;;;11.86;72.59;101977.38;5014146;28;98033;-33
2022/05/22 02:16:51;;;;;;;4.18;1.67;;;;;;;11.85;72.65;101981.06;5014961;28;114011;-33
2022/05/22 02:19:16;;;;;;;3.40;1.77;;;;;;;11.83;72.36;101983.84;5015926;28;116473;-34
2022/05/22 02:21:42;;;;;;;2.47;1.88;;;;;;;11.77;71.75;101970.53;5015903;28;127205;-33
2022/05/22 02:24:07;;;;;;;2.35;1.25;;;;;;;11.70;72.85;101966.38;5016716;28;97369;-34
2022/05/22 02:26:32;;;;;;;2.30;1.40;;;;;;;11.72;72.21;101967.19;5017151;28;96491;-33
2022/05/22 02:28:58;;;;;;;4.68;1.70;;;;;;;11.69;72.84;101973.63;5016898;28;97725;-33
2022/05/22 02:31:23;;;;;;;4.72;1.50;;;;;;;11.69;72.65;101975.47;5016831;28;103847;-34
2022/05/22 02:33:48;;;;;;;3.08;1.55;;;;;;;11.68;72.97;101965.59;5016228;28;112805;-33
2022/05/22 02:36:14;;;;;;;9.65;1.65;;;;;;;11.70;73.09;101966.38;5017234;28;96455;-34
2022/05/22 02:38:41;;;;;;;3.60;1.60;;;;;;;11.71;73.23;101956.41;5017085;28;96718;-34
2022/05/22 02:41:12;;;;;;;4.10;1.73;;;;;;;11.66;72.61;101940.34;4998389;28;101427;-34
2022/05/22 02:43:37;;;;;;;2.42;1.55;;;;;;;11.69;72.82;101948.34;4998469;28;100656;-33
2022/05/22 02:46:08;;;;;;;7.90;1.67;;;;;;;11.71;72.74;101942.84;5016269;28;96476;-33
2022/05/22 02:48:33;;;;;;;4.22;1.55;;;;;;;11.67;72.61;101936.66;4998716;28;96751;-33
2022/05/22 02:50:58;;;;;;;4.30;1.35;;;;;;;11.66;73.02;101926.78;5015533;28;126824;-33
2022/05/22 02:53:23;;;;;;;4.35;1.65;;;;;;;11.68;73.25;101933.88;5015525;28;123458;-34
2022/05/22 02:55:49;;;;;;;2.10;1.25;;;;;;;11.69;73.16;101932.91;5015900;28;117342;-34
2022/05/22 02:58:14;;;;;;;3.15;1.42;;;;;;;11.68;72.37;101930.31;5016217;28;115058;-33
2022/05/22 03:00:39;;;;;;;4.22;1.63;;;;;;;11.73;72.65;101939.09;5015383;28;126981;-33
2022/05/22 03:03:05;;;;;;;4.20;1.48;;;;;;;11.69;73.21;101938.34;5016479;28;98824;-33
2022/05/22 03:06:38;;;;;;;1.55;1.13;;;;;;;11.69;72.82;101942.91;5016473;28;96811;-34
2022/05/22 03:08:16;;;;;;;4.72;1.10;;;;;;;11.71;73.01;101948.28;5016350;28;96675;-33
2022/05/22 03:10:41;;;;;;;2.92;1.17;;;;;;;11.71;73.02;101942.84;4997426;28;101426;-34
2022/05/22 03:13:07;;;;;;;1.60;0.98;;;;;;;11.66;73.03;101941.22;5016232;28;97718;-34
2022/05/22 03:15:32;;;;;;;3.38;0.95;;;;;;;11.64;73.30;101934.13;5016659;28;96601;-33
2022/05/22 03:17:57;;;;;;;3.03;1.17;;;;;;;11.53;73.34;101910.19;5015095;28;117804;-33
2022/05/22 03:20:23;;;;;;;1.90;1.13;;;;;;;11.63;72.55;101935.03;5015609;28;98403;-33
2022/05/22 03:22:48;;;;;;;2.53;1.17;;;;;;;11.57;72.45;101921.78;5016024;28;97405;-33
2022/05/22 03:25:13;;;;;;;2.28;1.08;;;;;;;11.62;72.73;101930.59;5015506;28;117400;-34
2022/05/22 03:27:39;;;;;;;3.65;1.30;;;;;;;11.60;73.02;101936.06;5014870;28;105630;-33
2022/05/22 03:30:05;;;;;;;3.83;1.08;;;;;;;11.59;73.18;101930.75;5014770;28;128292;-33
2022/05/22 03:32:32;;;;;;;2.65;1.50;;;;;;;11.55;73.08;101913.72;4997751;28;102853;-33
2022/05/22 03:34:59;;;;;;;2.50;1.23;;;;;;;11.51;73.13;101906.66;5015641;28;96412;-33
2022/05/22 03:37:25;;;;;;;3.22;1.15;;;;;;;11.52;73.39;101916.59;4998073;28;96895;-33
2022/05/22 03:39:52;;;;;;;3.60;1.10;;;;;;;11.50;73.26;101904.94;5015834;28;97392;-33
2022/05/22 03:42:17;;;;;;;5.45;1.02;;;;;;;11.46;73.08;101909.63;4997639;28;100791;-33
2022/05/22 03:44:42;;;;;;;3.97;1.10;;;;;;;11.50;73.16;101921.22;5015135;28;117829;-33
2022/05/22 03:47:07;;;;;;;2.10;1.38;;;;;;;11.44;73.58;101908.81;5015036;28;114283;-33
2022/05/22 03:49:33;;;;;;;4.10;1.65;;;;;;;11.47;73.41;101903.25;5015301;28;99241;-34
2022/05/22 03:51:59;;;;;;;2.67;1.17;;;;;;;11.46;73.43;101898.78;4997724;28;100915;-33
2022/05/22 03:54:24;;;;;;;2.28;1.55;;;;;;;11.43;73.73;101888.06;5015598;28;96487;-33
2022/05/22 03:56:49;;;;;;;3.53;1.25;;;;;;;11.47;73.20;101900.53;5015145;28;111532;-33
2022/05/22 03:59:15;;;;;;;3.38;1.38;;;;;;;11.54;73.63;101914.69;5015135;28;97873;-33
2022/05/22 04:01:40;;;;;;;5.43;1.55;;;;;;;11.53;73.15;101909.31;5014905;28;112259;-33
2022/05/22 04:04:05;;;;;;;3.22;1.45;;;;;;;11.50;73.40;101899.50;5015721;28;96684;-34
2022/05/22 04:06:30;;;;;;;1.25;0.85;;;;;;;11.57;73.60;101903.66;5014645;28;116822;-33
2022/05/22 04:08:56;;;;;;;3.22;1.40;;;;;;;11.54;73.65;101886.69;5014439;28;126968;-33
2022/05/22 04:11:21;;;;;;;4.68;1.67;;;;;;;11.60;73.99;101899.94;5014096;28;126439;-33
2022/05/22 04:13:47;;;;;;;4.13;1.33;;;;;;;11.59;73.70;101898.19;5015511;28;96507;-33
2022/05/22 04:16:13;;;;;;;3.78;1.58;;;;;;;11.60;74.02;101897.22;5015838;28;96792;-33
2022/05/22 04:18:38;;;;;;;3.03;1.58;;;;;;;11.61;73.64;101897.16;5014581;28;98432;-34
2022/05/22 04:21:04;;;;;;;4.68;1.67;;;;;;;11.62;73.96;101887.16;5014987;28;99093;-33
2022/05/22 04:26:14;;;;;;;2.90;1.60;;;;;;;11.61;73.99;101880.00;5015810;28;96554;-33
2022/05/22 04:28:40;;;;;;;4.72;1.50;;;;;;;11.62;73.98;101873.59;5014679;28;99301;-33
2022/05/22 04:31:06;;;;;;;2.70;1.52;;;;;;;11.65;73.52;101885.16;5015128;28;97704;-34
2022/05/22 04:33:32;;;;;;;3.78;1.77;;;;;;;11.65;74.10;101868.88;4997158;28;96531;-33
2022/05/22 04:35:58;;;;;;;6.20;1.73;;;;;;;11.73;74.29;101882.09;5015244;28;96797;-33
2022/05/22 04:38:24;;;;;;;1.17;0.95;;;;;;;11.75;73.29;101885.63;4996654;28;101235;-33
2022/05/22 04:41:00;;;;;;;4.57;1.77;;;;;;;11.75;74.08;101882.91;4996940;28;100412;-33
2022/05/22 04:43:27;;;;;;;4.70;1.55;;;;;;;11.75;73.62;101880.19;4997080;28;96892;-33
2022/05/22 04:45:53;;;;;;;8.00;1.67;;;;;;;11.73;73.65;101867.63;4997090;28;96930;-34
2022/05/22 04:48:20;;;;;;;2.80;1.63;;;;;;;11.82;73.66;101881.63;4996250;28;100548;-33
2022/05/22 04:50:46;;;;;;;4.60;1.38;;;;;;;11.85;73.22;101878.75;4996533;28;101342;-33
2022/05/22 04:53:12;;;;;;;3.42;1.48;;;;;;;11.94;73.35;101882.91;5015077;28;96649;-33
2022/05/22 04:55:37;;;;;;;2.05;1.40;;;;;;;11.94;73.67;101882.00;5014893;28;96949;-33
2022/05/22 04:58:02;;;;;;;3.00;1.58;;;;;;;11.94;73.55;101863.88;5013747;28;123427;-33
2022/05/22 05:00:28;;;;;;;3.90;1.52;;;;;;;12.07;73.65;101888.56;5013331;28;126855;-33
2022/05/22 05:02:53;;;;;;;4.28;1.58;;;;;;;12.09;73.83;101870.34;5014175;28;115493;-33
2022/05/22 05:05:19;;;;;;;4.53;1.55;;;;;;;12.12;73.28;101870.19;4996039;28;115796;-33
2022/05/22 05:07:44;;;;;;;3.88;1.83;;;;;;;12.17;73.34;101872.66;5014540;28;97906;-33
2022/05/22 05:10:11;;;;;;;3.60;1.67;;;;;;;12.24;73.66;101874.09;5013103;28;128585;-33
2022/05/22 05:12:38;;;;;;;2.38;1.45;;;;;;;12.28;72.66;101864.84;5013698;28;96609;-33
2022/05/22 05:15:06;;;;;;;4.05;1.50;;;;;;;12.32;73.90;101870.03;4996394;28;96919;-34
2022/05/22 05:17:31;;;;;;;3.83;1.77;;;;;;;12.40;73.19;101872.34;4996069;28;102767;-33
2022/05/22 05:19:56;;;;;;;2.67;1.65;;;;;;;12.39;74.02;101866.97;5014264;28;97329;-33
2022/05/22 05:22:22;;;;;;;2.80;1.30;;;;;;;12.51;73.16;101874.47;5014291;28;99501;-33
2022/05/22 05:24:47;;;;;;;3.35;1.33;;;;;;;12.51;74.11;101878.09;5014403;28;96788;-34
2022/05/22 05:27:12;;;;;;;3.25;1.80;;;;;;;12.68;73.18;101893.50;5014315;28;98124;-33
2022/05/22 05:29:38;;;;;;;4.22;1.80;;;;;;;12.71;73.33;101889.75;5014474;28;97839;-33
2022/05/22 05:32:03;;;;;;;2.63;1.67;;;;;;;12.81;72.33;101890.13;5014608;28;96628;-34
2022/05/22 05:34:29;;;;;;;6.57;2.00;;;;;;;12.91;72.92;101896.81;5014629;28;96814;-33
2022/05/22 05:36:54;;;;;;;3.88;2.25;;;;;;;12.90;73.35;101878.75;5013601;28;97903;-33
2022/05/22 05:39:20;;;;;;;5.85;2.10;;;;;;;13.10;72.54;101908.44;5014166;28;97774;-34
2022/05/22 05:41:45;;;;;;;3.92;1.92;;;;;;;13.16;72.78;101899.06;5014435;28;96728;-33
2022/05/22 05:44:11;;;;;;;7.18;2.63;;;;;;;13.15;73.86;101881.84;5013445;28;116118;-33
2022/05/22 05:46:37;;;;;;;6.00;1.77;;;;;;;13.23;73.54;101896.88;5014162;28;96795;-33
2022/05/22 05:49:04;;;;;;;3.40;1.60;;;;;;;13.27;74.65;101891.19;4995665;28;101141;-33
2022/05/22 05:51:29;;;;;;;2.63;1.50;;;;;;;13.40;72.71;101898.69;4997667;28;96705;-34
2022/05/22 05:53:55;;;;;;;6.10;2.13;;;;;;;13.48;72.90;101891.84;5018308;28;96817;-33
2022/05/22 05:56:20;;;;;;;3.70;2.17;;;;;;;13.52;73.73;101898.00;5017551;28;97874;-33
2022/05/22 05:58:46;;;;;;;5.88;1.92;;;;;;;13.69;72.43;101902.47;5017189;28;97334;-34
2022/05/22 06:01:16;;;;;;;5.10;2.15;;;;;;;13.79;72.96;101899.09;5016947;28;96549;-33
2022/05/22 06:03:42;;;;;;;4.25;2.22;;;;;;;13.90;72.22;101898.50;4999532;28;96739;-33
2022/05/22 06:06:09;;;;;;;8.40;2.80;;;;;;;14.02;72.35;101903.22;5016873;28;109551;-33
2022/05/22 06:08:35;;;;;;;6.93;2.35;;;;;;;14.10;72.07;101901.88;4999003;28;100967;-34
2022/05/22 06:11:00;;;;;;;7.13;2.20;;;;;;;14.18;71.62;101888.66;5017400;28;96626;-33
2022/05/22 06:13:25;;;;;;;4.38;2.53;;;;;;;14.32;72.17;101887.84;5016372;28;116506;-33
2022/05/22 06:15:52;;;;;;;4.35;2.55;;;;;;;14.39;71.75;101878.31;5017054;28;100415;-34
2022/05/22 06:18:18;;;;;;;6.25;2.40;;;;;;;14.59;70.66;101882.59;5016932;28;97907;-37
2022/05/22 06:20:43;;;;;;;10.15;2.67;;;;;;;14.65;70.76;101871.28;4999308;28;96669;-33
2022/05/22 06:23:09;;;;;;;4.55;2.35;;;;;;;14.75;69.75;101869.72;5016228;28;115907;-33
2022/05/22 06:25:35;;;;;;;5.88;2.08;;;;;;;14.79;70.14;101879.47;5016354;28;98995;-34
2022/05/22 06:28:01;;;;;;;8.25;2.85;;;;;;;14.86;70.09;101882.69;5015385;28;127633;-34
2022/05/22 06:30:27;;;;;;;6.20;2.15;;;;;;;15.00;69.89;101885.44;5016939;28;96728;-33
2022/05/22 06:32:52;;;;;;;7.50;2.95;;;;;;;15.09;69.21;101878.53;5016910;28;96899;-33
2022/05/22 06:35:19;;;;;;;7.82;2.13;;;;;;;15.18;69.15;101883.41;5016587;28;99244;-33
2022/05/22 06:37:44;;;;;;;7.10;2.15;;;;;;;15.28;69.40;101890.00;5016716;28;97398;-33
2022/05/22 06:40:10;;;;;;;6.20;2.35;;;;;;;15.40;68.52;101887.47;5017179;28;96471;-33
2022/05/22 06:42:44;;;;;;;9.38;2.33;;;;;;;15.53;68.55;101892.97;4999106;28;96996;-33
2022/05/22 06:45:13;;;;;;;4.38;1.90;;;;;;;15.51;68.25;101893.06;4998500;28;100827;-33
2022/05/22 06:47:39;;;;;;;6.80;2.35;;;;;;;15.60;67.74;101888.88;5014943;28;100713;-33
2022/05/22 06:50:08;;;;;;;4.15;1.90;;;;;;;15.60;67.75;101880.69;5016426;28;96495;-33
2022/05/22 06:52:33;;;;;;;5.43;1.85;;;;;;;15.75;67.27;101893.34;4998509;28;96879;-33
2022/05/22 06:55:00;;;;;;;10.02;2.53;;;;;;;15.79;67.28;101883.09;5016397;28;97923;-33
2022/05/22 06:57:26;;;;;;;6.20;2.47;;;;;;;15.92;67.00;101894.94;4998107;28;100931;-33
2022/05/22 06:59:54;;;;;;;5.82;2.50;;;;;;;16.06;67.05;101892.13;5016865;28;96663;-33
2022/05/22 07:02:20;;;;;;;7.60;2.67;;;;;;;16.13;66.60;101895.34;4998291;28;96832;-33
2022/05/22 07:04:46;;;;;;;6.18;2.30;;;;;;;16.07;66.02;101882.09;4998152;28;101178;-33
2022/05/22 07:07:11;;;;;;;6.38;2.33;;;;;;;16.07;66.08;101885.72;5016595;28;97177;-33
2022/05/22 07:09:37;;;;;;;8.52;2.47;;;;;;;16.21;65.48;101892.06;5016286;28;96729;-33
2022/05/22 07:12:07;;;;;;;5.78;2.22;;;;;;;16.27;64.74;101888.94;5016384;28;97193;-33
2022/05/22 07:14:33;;;;;;;9.25;2.03;;;;;;;16.42;64.77;101873.31;5031213;28;97994;-33
2022/05/22 07:17:02;;;;;;;5.15;2.00;;;;;;;16.54;63.74;101873.34;5016268;28;97781;-33
2022/05/22 07:19:27;;;;;;;3.53;1.80;;;;;;;16.55;63.45;101869.63;4997852;28;96691;-33
2022/05/22 07:21:52;;;;;;;6.45;2.53;;;;;;;16.61;64.13;101870.16;5016185;28;96852;-33
2022/05/22 07:24:18;;;;;;;8.45;1.75;;;;;;;16.77;63.59;101876.28;5015738;28;97437;-33
2022/05/22 07:26:43;;;;;;;8.65;1.73;;;;;;;16.90;62.97;101876.31;5015920;28;101380;-33
2022/05/22 07:29:09;;;;;;;5.90;2.70;;;;;;;16.89;63.15;101875.44;5016254;28;96551;-33
2022/05/22 07:31:34;;;;;;;4.95;2.20;;;;;;;16.85;63.33;101875.78;5016694;28;96778;-33
2022/05/22 07:34:01;;;;;;;7.32;2.50;;;;;;;16.87;62.94;101871.94;5015738;28;106079;-33
2022/05/22 07:36:26;;;;;;;6.40;2.00;;;;;;;17.14;61.89;101880.03;5015865;28;97921;-33
2022/05/22 07:38:52;;;;;;;6.25;1.98;;;;;;;17.21;61.24;101875.00;5015399;28;96783;-33
2022/05/22 07:41:17;;;;;;;5.22;1.92;;;;;;;17.37;61.80;101874.72;5016236;28;96650;-33
2022/05/22 07:43:42;;;;;;;12.10;2.67;;;;;;;17.51;61.25;101860.00;5015881;28;98050;-33
2022/05/22 07:46:13;;;;;;;9.80;2.20;;;;;;;17.75;61.07;101849.06;5014976;28;119856;-33
2022/05/22 07:48:39;;;;;;;7.35;2.63;;;;;;;17.96;59.31;101857.53;4997809;28;96637;-33
2022/05/22 07:51:04;;;;;;;5.50;2.53;;;;;;;18.19;59.87;101858.53;5014363;28;96839;-34
2022/05/22 07:53:30;;;;;;;6.28;2.10;;;;;;;18.37;59.31;101862.56;4997438;28;101351;-33
2022/05/22 07:55:56;;;;;;;3.83;1.67;;;;;;;18.39;55.00;101862.44;5015823;28;98950;-33
2022/05/22 07:58:24;;;;;;;9.02;2.22;;;;;;;18.34;58.62;101854.56;5015651;28;96604;-33
2022/05/22 08:00:50;;;;;;;4.53;2.47;;;;;;;18.47;58.45;101851.72;4997726;28;96824;-33
2022/05/22 08:03:17;;;;;;;9.45;2.30;;;;;;;18.75;57.79;101844.91;4996720;28;100892;-33
2022/05/22 08:05:43;;;;;;;6.82;2.58;;;;;;;18.89;55.95;101843.84;4997186;28;100696;-34
2022/05/22 08:08:09;;;;;;;4.85;2.35;;;;;;;19.03;56.39;101840.84;4997482;28;96676;-33
2022/05/22 08:10:36;;;;;;;6.95;1.75;;;;;;;19.18;55.85;101837.84;4997298;28;96828;-33
2022/05/22 08:13:04;;;;;;;5.63;2.05;;;;;;;19.31;55.64;101827.59;4997300;28;100672;-33
2022/05/22 08:15:30;;;;;;;4.25;1.60;;;;;;;19.20;55.42;101814.75;4996584;28;100827;-33
2022/05/22 08:17:56;;;;;;;7.07;1.85;;;;;;;19.36;55.08;101818.97;5014137;28;96574;-33
2022/05/22 08:20:21;;;;;;;4.40;1.75;;;;;;;19.21;53.74;101816.50;5015470;28;96812;-34
2022/05/22 08:22:47;;;;;;;4.53;1.58;;;;;;;19.35;54.73;101815.34;5013908;28;98097;-34
2022/05/22 08:25:16;;;;;;;5.47;2.30;;;;;;;19.35;55.48;101809.84;5014062;28;99413;-32
2022/05/22 08:27:41;;;;;;;3.38;1.42;;;;;;;19.40;54.28;101795.72;4996469;28;96552;-33
2022/05/22 08:30:11;;;;;;;6.07;1.45;;;;;;;19.52;54.33;101789.19;5014604;28;108303;-34
2022/05/22 08:32:41;;;;;;;5.60;1.70;;;;;;;19.85;53.37;101801.09;5014092;28;99700;-34
2022/05/22 08:35:10;;;;;;;7.85;1.88;;;;;;;20.08;52.45;101788.13;4995951;28;100275;-34
2022/05/22 08:37:36;;;;;;;3.67;1.38;;;;;;;20.25;52.00;101800.41;4996036;28;96684;-35
2022/05/22 08:40:04;;;;;;;4.35;1.50;;;;;;;20.25;51.61;101794.91;5012925;28;109994;-33
2022/05/22 08:42:52;;;;;;;6.40;1.20;;;;;;;20.35;50.20;101796.72;4996779;28;100787;-33
2022/05/22 08:45:22;;;;;;;3.92;1.33;;;;;;;20.32;50.74;101785.97;4986009;28;99238;-34
2022/05/22 08:47:50;;;;;;;3.22;1.35;;;;;;;20.45;49.07;101799.53;4996802;28;96553;-33
2022/05/22 08:50:16;;;;;;;8.93;1.42;;;;;;;20.51;51.03;101790.72;5014845;28;96767;-34
2022/05/22 08:52:54;;;;;;;4.72;1.38;;;;;;;20.61;49.98;101782.53;5014155;28;99004;-34
2022/05/22 08:58:56;;;;;;;4.75;1.20;;;;;;;20.68;48.49;101794.75;4996519;28;100747;-33
2022/05/22 09:01:18;;;;;;;7.85;1.55;;;;;;;20.91;48.51;101778.91;5015344;28;96518;-34
2022/05/22 09:04:10;;;;;;;5.45;1.50;;;;;;;21.00;49.12;101785.47;5014937;28;97488;-34
2022/05/22 09:06:45;;;;;;;7.35;1.80;;;;;;;20.88;47.92;101783.81;5014672;28;97878;-34
2022/05/22 09:09:10;;;;;;;6.75;1.52;;;;;;;20.95;49.73;101762.97;4996581;28;96799;-34
2022/05/22 09:11:59;;;;;;;4.40;1.63;;;;;;;21.06;47.27;101759.25;5012909;28;104732;-34
2022/05/22 09:14:36;;;;;;;3.55;1.38;;;;;;;21.05;48.35;101766.66;4979847;28;100878;-34
2022/05/22 09:17:10;;;;;;;4.78;1.58;;;;;;;21.21;48.24;101769.75;4996437;28;100805;-34
2022/05/22 09:19:39;;;;;;;4.18;1.55;;;;;;;21.35;49.05;101764.81;5012482;28;96773;-34
2022/05/22 09:22:21;;;;;;;5.40;1.55;;;;;;;21.39;47.37;101752.50;5014522;28;96741;-34
2022/05/22 09:25:11;;;;;;;6.07;1.77;;;;;;;21.40;47.04;101762.53;5014325;28;99469;-34
2022/05/22 09:28:04;;;;;;;4.43;1.73;;;;;;;21.40;47.77;101752.41;5018037;28;97812;-34
2022/05/22 09:30:49;;;;;;;5.60;2.00;;;;;;;21.52;46.89;101750.34;5018190;28;96715;-34
2022/05/22 09:33:27;;;;;;;4.03;1.70;;;;;;;21.51;47.64;101748.63;4999882;28;96643;-34
2022/05/22 09:36:25;;;;;;;3.95;1.50;;;;;;;21.46;46.92;101742.69;4983070;28;100971;-34
2022/05/22 09:38:56;;;;;;;3.38;1.50;;;;;;;21.57;46.86;101748.06;5017518;28;97697;-34
2022/05/22 09:41:37;;;;;;;3.28;1.55;;;;;;;21.10;44.72;101722.13;5016720;28;96657;-34
2022/05/22 09:44:36;;;;;;;10.15;2.03;;;;;;;21.29;47.70;101738.72;4999765;28;96724;-34
2022/05/22 09:47:38;;;;;;;4.45;1.27;;;;;;;21.20;47.26;101731.28;5017122;28;97945;-34
2022/05/22 09:50:36;;;;;;;2.83;1.15;;;;;;;21.40;45.92;101746.00;5017659;28;96545;-34
2022/05/22 09:53:11;;;;;;;1.70;0.93;;;;;;;21.57;46.96;101747.16;4999183;28;96849;-34
2022/05/22 09:55:44;;;;;;;5.18;1.48;;;;;;;21.62;46.00;101748.50;4999753;28;96735;-34
2022/05/22 09:58:37;;;;;;;3.00;1.23;;;;;;;22.00;46.66;101741.22;4999202;28;100604;-34
2022/05/22 10:01:26;;;;;;;4.90;1.10;;;;;;;21.83;45.57;101739.19;5017100;28;99067;-34
2022/05/22 10:04:27;;;;;;;5.60;1.30;;;;;;;21.88;45.04;101725.84;4999547;28;96597;-34
2022/05/22 10:07:05;;;;;;;3.65;1.55;;;;;;;22.17;45.96;101736.81;5018155;28;96797;-34
2022/05/22 10:09:40;;;;;;;3.60;1.08;;;;;;;22.18;41.21;101732.16;5017002;28;99020;-34
2022/05/22 10:12:19;;;;;;;6.30;1.35;;;;;;;22.13;44.01;101735.38;5017132;28;100736;-34
2022/05/22 10:15:09;;;;;;;1.90;0.98;;;;;;;22.13;44.08;101729.00;4998767;28;96640;-33
2022/05/22 10:17:40;;;;;;;5.55;1.10;;;;;;;22.33;42.46;101719.66;4999401;28;96770;-34
2022/05/22 10:20:30;;;;;;;2.65;0.98;;;;;;;22.52;41.83;101721.47;5015442;28;100268;-34
2022/05/22 10:23:03;;;;;;;4.88;1.20;;;;;;;22.63;43.12;101715.78;5016735;28;98916;-34
2022/05/22 10:26:02;;;;;;;6.28;1.45;;;;;;;22.66;42.19;101709.06;5017117;28;96723;-34
2022/05/22 10:28:37;;;;;;;1.95;1.00;;;;;;;22.60;43.29;101702.28;4999073;28;96624;-34
2022/05/22 10:31:19;;;;;;;5.80;1.02;;;;;;;22.77;43.26;101700.59;4998829;28;100791;-34
2022/05/22 10:34:04;;;;;;;2.83;1.27;;;;;;;22.93;43.07;101693.50;4998933;28;100821;-34
2022/05/22 10:36:36;;;;;;;7.10;1.23;;;;;;;22.93;41.55;101682.47;5016416;28;96638;-34
2022/05/22 10:39:08;;;;;;;4.13;0.98;;;;;;;22.88;40.68;101675.53;4999020;28;96805;-34
2022/05/22 10:44:29;;;;;;;10.20;1.40;;;;;;;23.06;41.38;101680.25;5017148;28;97022;-34
2022/05/22 10:47:02;;;;;;;7.47;1.52;;;;;;;23.10;41.75;101673.38;4998957;28;96657;-34
2022/05/22 10:49:42;;;;;;;4.63;1.00;;;;;;;23.25;40.62;101679.22;5017030;28;96603;-34
2022/05/22 10:52:11;;;;;;;6.15;1.30;;;;;;;23.36;39.64;101672.59;4998578;28;100980;-34
2022/05/22 10:54:47;;;;;;;4.70;1.10;;;;;;;23.36;38.06;101676.25;4998243;28;98861;-34
2022/05/22 10:57:17;;;;;;;4.80;1.25;;;;;;;23.43;40.92;101662.63;5015376;28;96633;-34
2022/05/22 10:59:43;;;;;;;5.35;1.17;;;;;;;23.61;39.82;101666.25;5016865;28;96777;-34
2022/05/22 11:02:19;;;;;;;5.10;0.95;;;;;;;23.49;40.63;101646.28;5016411;28;97392;-34
2022/05/22 11:04:46;;;;;;;3.38;1.30;;;;;;;23.59;41.21;101650.84;4998276;28;100861;-34
2022/05/22 11:07:13;;;;;;;1.85;1.05;;;;;;;23.68;40.13;101656.28;4997840;28;96837;-34
2022/05/22 11:09:47;;;;;;;4.90;1.40;;;;;;;23.85;40.17;101668.38;4998578;28;96807;-34
2022/05/22 11:12:23;;;;;;;3.88;1.10;;;;;;;23.78;38.04;101638.75;4997776;28;100277;-34
2022/05/22 11:14:49;;;;;;;3.15;1.50;;;;;;;23.86;40.24;101663.72;4998050;28;100509;-34
2022/05/22 11:17:18;;;;;;;1.83;0.90;;;;;;;23.88;39.87;101650.56;5016183;28;97106;-34
2022/05/22 11:19:47;;;;;;;7.65;1.23;;;;;;;23.93;38.92;101649.09;4997618;28;97009;-34
2022/05/22 11:22:18;;;;;;;4.25;1.02;;;;;;;24.04;39.16;101650.69;4997956;28;100865;-34
2022/05/22 11:25:05;;;;;;;7.28;1.13;;;;;;;24.13;37.58;101637.78;5015996;28;97399;-34
2022/05/22 11:27:45;;;;;;;8.85;1.20;;;;;;;24.11;36.96;101626.88;5016468;28;96625;-34
2022/05/22 11:30:32;;;;;;;5.57;1.15;;;;;;;24.21;37.88;101617.56;5016218;28;96697;-34
2022/05/22 11:33:07;;;;;;;3.30;1.10;;;;;;;24.40;37.83;101633.94;5013958;28;101252;-34
2022/05/22 11:35:41;;;;;;;3.35;0.88;;;;;;;24.44;39.01;101621.50;5015769;28;99603;-34
2022/05/22 11:38:28;;;;;;;3.55;1.05;;;;;;;24.49;37.60;101609.94;4998048;28;96697;-34
2022/05/22 11:41:19;;;;;;;5.57;1.33;;;;;;;24.45;37.15;101619.59;5014821;28;96851;-34
2022/05/22 11:43:53;;;;;;;7.18;1.35;;;;;;;24.50;39.22;101617.22;5015959;28;98573;-34
2022/05/22 11:46:43;;;;;;;6.35;1.63;;;;;;;24.42;38.23;101606.94;5015734;28;97747;-34
2022/05/22 11:49:15;;;;;;;4.38;1.45;;;;;;;24.57;37.93;101604.44;5015015;28;96593;-33